createdAt,value
2022-10-15T00:02:02.296Z,50.31
2022-10-15T00:07:09.496Z,50.31
2022-10-15T00:12:16.639Z,50.26
2022-10-15T00:17:24.346Z,50.16
2022-10-15T00:22:30.990Z,49.87
2022-10-15T00:27:38.205Z,49.46
2022-10-15T00:32:45.409Z,49.42
2022-10-15T00:37:52.654Z,49.55
2022-10-15T00:42:59.812Z,49.34
2022-10-15T00:48:07.050Z,49.41
2022-10-15T00:53:14.210Z,49.45
2022-10-15T00:58:21.439Z,49.55
2022-10-15T01:03:28.700Z,49.55
2022-10-15T01:08:35.903Z,49.60
2022-10-15T01:13:43.154Z,49.61
2022-10-15T01:18:50.377Z,49.64
2022-10-15T01:23:57.559Z,49.78
2022-10-15T01:29:04.870Z,49.94
2022-10-15T01:34:14.970Z,49.99
2022-10-15T01:39:19.386Z,50.10
2022-10-15T01:44:26.563Z,50.16
2022-10-15T01:49:33.813Z,50.19
2022-10-15T01:54:40.989Z,50.22
2022-10-15T01:59:48.199Z,50.32
2022-10-15T02:04:55.421Z,50.35
2022-10-15T02:10:02.612Z,50.45
2022-10-15T02:15:09.813Z,50.47
2022-10-15T02:20:17.000Z,50.53
2022-10-15T02:25:24.220Z,50.51
2022-10-15T02:30:31.437Z,50.52
2022-10-15T02:35:38.678Z,50.59
2022-10-15T02:40:47.674Z,50.63
2022-10-15T02:45:54.894Z,50.67
2022-10-15T02:51:02.105Z,50.70
2022-10-15T02:56:09.282Z,50.79
2022-10-15T03:01:16.538Z,50.83
2022-10-15T03:06:23.606Z,50.77
2022-10-15T03:11:30.785Z,50.83
2022-10-15T03:16:37.935Z,50.79
2022-10-15T03:21:45.120Z,50.90
2022-10-15T03:26:52.300Z,50.96
2022-10-15T03:31:59.507Z,51.00
2022-10-15T03:37:06.803Z,51.03
2022-10-15T03:42:13.986Z,51.13
2022-10-15T03:47:21.195Z,51.00
2022-10-15T03:52:28.453Z,51.16
2022-10-15T03:57:35.623Z,51.16
2022-10-15T04:02:42.850Z,51.18
2022-10-15T04:07:50.073Z,51.21
2022-10-15T04:12:57.300Z,51.16
2022-10-15T04:18:04.556Z,51.17
2022-10-15T04:23:11.777Z,51.24
2022-10-15T04:28:19.055Z,51.24
2022-10-15T04:33:26.289Z,51.29
2022-10-15T04:38:33.494Z,51.25
2022-10-15T04:43:40.646Z,51.09
2022-10-15T04:48:47.934Z,51.13
2022-10-15T04:53:55.219Z,51.15
2022-10-15T04:59:02.403Z,50.99
2022-10-15T05:04:09.630Z,50.99
2022-10-15T05:09:16.909Z,51.00
2022-10-15T05:14:24.088Z,50.95
2022-10-15T05:19:31.344Z,50.90
2022-10-15T05:24:38.602Z,51.12
2022-10-15T05:29:45.712Z,51.00
2022-10-15T05:34:52.948Z,51.13
2022-10-15T05:40:00.177Z,51.25
2022-10-15T05:45:07.405Z,51.28
2022-10-15T05:50:14.607Z,51.32
2022-10-15T05:55:21.882Z,51.36
2022-10-15T06:00:29.085Z,51.46
2022-10-15T06:05:36.259Z,51.49
2022-10-15T06:10:43.485Z,51.44
2022-10-15T06:15:50.673Z,51.45
2022-10-15T06:20:57.935Z,51.50
2022-10-15T06:26:05.404Z,51.42
2022-10-15T06:31:12.498Z,51.34
2022-10-15T06:36:19.704Z,51.43
2022-10-15T06:41:27.165Z,51.32
2022-10-15T06:46:34.132Z,51.29
2022-10-15T06:51:41.339Z,51.30
2022-10-15T06:56:48.792Z,51.31
2022-10-15T07:01:56.021Z,51.31
2022-10-15T07:07:03.259Z,51.27
2022-10-15T07:12:10.487Z,51.25
2022-10-15T07:17:17.659Z,51.19
2022-10-15T07:22:25.099Z,51.26
2022-10-15T07:27:32.068Z,51.18
2022-10-15T07:32:39.265Z,51.19
2022-10-15T07:37:46.441Z,51.21
2022-10-15T07:42:53.729Z,51.25
2022-10-15T07:48:00.881Z,51.45
2022-10-15T07:53:08.068Z,51.67
2022-10-15T07:58:15.300Z,51.58
2022-10-15T08:03:22.485Z,51.50
2022-10-15T08:08:32.443Z,51.46
2022-10-15T08:13:40.833Z,51.70
2022-10-15T08:18:48.141Z,51.51
2022-10-15T08:23:55.293Z,51.67
2022-10-15T08:29:02.604Z,51.64
2022-10-15T08:34:09.693Z,51.58
2022-10-15T08:39:16.872Z,51.73
2022-10-15T08:44:24.151Z,51.84
2022-10-15T08:49:31.317Z,52.13
2022-10-15T08:54:38.498Z,52.01
2022-10-15T08:59:45.729Z,52.04
2022-10-15T09:04:52.978Z,52.51
2022-10-15T09:10:00.151Z,52.25
2022-10-15T09:15:07.394Z,52.24
2022-10-15T09:20:14.558Z,52.75
2022-10-15T09:25:21.762Z,52.38
2022-10-15T09:30:28.995Z,52.32
2022-10-15T09:35:36.426Z,53.04
2022-10-15T09:40:43.670Z,52.49
2022-10-15T09:45:50.865Z,52.59
2022-10-15T09:50:58.074Z,52.66
2022-10-15T09:56:05.291Z,52.55
2022-10-15T10:01:12.520Z,52.46
2022-10-15T10:06:19.701Z,53.28
2022-10-15T10:11:26.894Z,52.69
2022-10-15T10:16:34.184Z,52.55
2022-10-15T10:21:41.333Z,52.37
2022-10-15T10:26:48.670Z,52.24
2022-10-15T10:31:55.935Z,51.99
2022-10-15T10:37:03.145Z,51.90
2022-10-15T10:42:10.360Z,51.87
2022-10-15T10:47:17.531Z,52.03
2022-10-15T10:52:24.776Z,52.09
2022-10-15T10:57:31.954Z,52.08
2022-10-15T11:02:39.193Z,52.16
2022-10-15T11:07:46.542Z,52.17
2022-10-15T11:12:53.783Z,52.25
2022-10-15T11:18:01.013Z,52.33
2022-10-15T11:23:08.209Z,52.52
2022-10-15T11:28:15.379Z,53.15
2022-10-15T11:33:24.050Z,53.83
2022-10-15T11:38:31.229Z,53.64
2022-10-15T11:43:38.440Z,53.34
2022-10-15T11:48:45.637Z,52.64
2022-10-15T11:53:53.858Z,53.44
2022-10-15T11:59:01.046Z,53.32
2022-10-15T12:04:08.358Z,53.18
2022-10-15T12:09:15.489Z,53.07
2022-10-15T12:14:22.683Z,53.00
2022-10-15T12:19:29.924Z,52.84
2022-10-15T12:24:37.092Z,52.72
2022-10-15T12:29:44.294Z,52.70
2022-10-15T12:34:51.507Z,52.69
2022-10-15T12:39:58.627Z,52.61
2022-10-15T12:45:05.902Z,52.63
2022-10-15T12:50:13.751Z,52.55
2022-10-15T12:55:20.962Z,52.49
2022-10-15T13:00:28.357Z,52.54
2022-10-15T13:05:35.566Z,52.49
2022-10-15T13:10:42.806Z,52.51
2022-10-15T13:15:52.028Z,52.58
2022-10-15T13:20:57.287Z,52.57
2022-10-15T13:26:04.480Z,52.50
2022-10-15T13:31:11.751Z,52.46
2022-10-15T13:36:19.005Z,52.48
2022-10-15T13:41:26.179Z,52.47
2022-10-15T13:46:33.400Z,52.41
2022-10-15T13:51:40.620Z,52.44
2022-10-15T13:56:50.298Z,52.49
2022-10-15T14:01:55.002Z,52.46
2022-10-15T14:07:02.865Z,52.48
2022-10-15T14:12:09.419Z,52.45
2022-10-15T14:17:16.587Z,52.54
2022-10-15T14:22:24.060Z,52.61
2022-10-15T14:27:31.236Z,52.67
2022-10-15T14:32:38.451Z,52.74
2022-10-15T14:37:45.679Z,52.67
2022-10-15T14:42:52.869Z,52.79
2022-10-15T14:48:00.101Z,52.76
2022-10-15T14:53:07.408Z,52.70
2022-10-15T14:58:14.686Z,52.77
2022-10-15T15:03:21.949Z,52.83
2022-10-15T15:08:29.130Z,52.87
2022-10-15T15:13:36.365Z,53.01
2022-10-15T15:18:43.588Z,53.04
2022-10-15T15:23:50.820Z,53.01
2022-10-15T15:29:00.739Z,53.12
2022-10-15T15:34:07.912Z,53.13
2022-10-15T15:39:15.267Z,53.27
2022-10-15T15:44:22.490Z,53.14
2022-10-15T15:49:29.687Z,53.21
2022-10-15T15:54:36.974Z,53.29
2022-10-15T15:59:44.091Z,53.38
2022-10-15T16:04:51.299Z,53.38
2022-10-15T16:09:58.502Z,53.35
2022-10-15T16:15:07.854Z,53.25
2022-10-15T16:20:12.928Z,53.23
2022-10-15T16:25:20.178Z,53.35
2022-10-15T16:30:27.320Z,53.37
2022-10-15T16:35:34.528Z,53.43
2022-10-15T16:40:41.822Z,53.80
2022-10-15T16:45:48.957Z,54.32
2022-10-15T16:50:56.155Z,54.12
2022-10-15T16:56:03.369Z,53.99
2022-10-15T17:01:10.540Z,54.80
2022-10-15T17:06:17.767Z,54.60
2022-10-15T17:11:25.169Z,54.54
2022-10-15T17:16:32.384Z,54.31
2022-10-15T17:21:42.447Z,54.09
2022-10-15T17:26:47.514Z,54.15
2022-10-15T17:31:54.913Z,54.19
2022-10-15T17:37:02.422Z,54.11
2022-10-15T17:42:09.766Z,54.59
2022-10-15T17:47:16.920Z,54.22
2022-10-15T17:52:24.156Z,54.54
2022-10-15T17:57:31.667Z,54.57
2022-10-15T18:02:39.315Z,54.89
2022-10-15T18:07:46.971Z,55.27
2022-10-15T18:12:54.323Z,56.72
2022-10-15T18:18:01.791Z,55.62
2022-10-15T18:23:11.458Z,55.15
2022-10-15T18:28:19.127Z,55.04
2022-10-15T18:33:26.785Z,54.93
2022-10-15T18:38:34.295Z,54.96
2022-10-15T18:43:43.163Z,55.03
2022-10-15T18:48:50.655Z,55.07
2022-10-15T18:53:58.163Z,55.11
2022-10-15T18:59:05.625Z,54.99
2022-10-15T19:04:13.081Z,54.92
2022-10-15T19:09:20.394Z,54.81
2022-10-15T19:14:27.933Z,54.81
2022-10-15T19:19:35.267Z,54.73
2022-10-15T19:24:42.438Z,54.63
2022-10-15T19:29:49.656Z,54.54
2022-10-15T19:34:57.136Z,54.56
2022-10-15T19:40:04.443Z,54.70
2022-10-15T19:45:11.701Z,54.46
2022-10-15T19:50:19.055Z,54.35
2022-10-15T19:55:26.455Z,54.31
2022-10-15T20:00:34.002Z,54.31
2022-10-15T20:05:41.349Z,54.28
2022-10-15T20:10:48.543Z,54.30
2022-10-15T20:15:55.871Z,54.82
2022-10-15T20:21:03.086Z,54.15
2022-10-15T20:26:10.518Z,54.10
2022-10-15T20:31:17.918Z,54.10
2022-10-15T20:36:25.140Z,54.09
2022-10-15T20:41:32.337Z,54.01
2022-10-15T20:46:39.619Z,53.96
2022-10-15T20:51:46.814Z,53.84
2022-10-15T20:56:53.999Z,54.21
2022-10-15T21:02:01.198Z,53.94
2022-10-15T21:07:08.550Z,53.79
2022-10-15T21:12:15.782Z,54.24
2022-10-15T21:17:23.360Z,54.30
2022-10-15T21:22:30.197Z,55.25
2022-10-15T21:27:37.464Z,54.71
2022-10-15T21:32:44.730Z,54.38
2022-10-15T21:37:51.977Z,54.09
2022-10-15T21:42:59.200Z,54.01
2022-10-15T21:48:09.192Z,54.50
2022-10-15T21:53:16.377Z,54.09
2022-10-15T21:58:23.576Z,53.93
2022-10-15T22:03:30.809Z,53.86
2022-10-15T22:08:38.003Z,53.93
2022-10-15T22:13:47.133Z,53.88
2022-10-15T22:18:54.377Z,53.88
2022-10-15T22:24:01.567Z,53.79
2022-10-15T22:29:08.808Z,53.82
2022-10-15T22:34:15.969Z,53.84
2022-10-15T22:39:23.108Z,53.83
2022-10-15T22:44:30.362Z,53.79
2022-10-15T22:49:37.543Z,53.80
2022-10-15T22:54:44.769Z,53.83
2022-10-15T22:59:55.833Z,53.79
2022-10-15T23:04:59.129Z,53.79
2022-10-15T23:10:06.266Z,53.77
2022-10-15T23:15:13.494Z,53.76
2022-10-15T23:20:20.728Z,53.76
2022-10-15T23:25:28.010Z,53.73
2022-10-15T23:30:35.228Z,53.76
2022-10-15T23:35:42.562Z,53.80
2022-10-15T23:40:49.726Z,53.82
2022-10-15T23:45:56.890Z,53.76
2022-10-15T23:51:04.182Z,53.79
2022-10-15T23:56:11.346Z,53.76
